createdAt,value
2023-05-06T00:01:32.821Z,1.8
2023-05-06T00:04:34.868Z,2.7
2023-05-06T00:07:36.732Z,2
2023-05-06T00:10:38.729Z,1.5
2023-05-06T00:13:40.684Z,3
2023-05-06T00:16:42.733Z,1.8
2023-05-06T00:19:44.646Z,3
2023-05-06T00:22:46.571Z,2.1
2023-05-06T00:25:48.570Z,2.7
2023-05-06T00:28:50.537Z,3.1
2023-05-06T00:31:52.499Z,3.6
2023-05-06T00:34:54.438Z,3
2023-05-06T00:37:56.406Z,2.5
2023-05-06T00:40:58.390Z,2.1
2023-05-06T00:44:00.323Z,2.1
2023-05-06T00:47:02.318Z,3.7
2023-05-06T00:50:04.301Z,3
2023-05-06T00:53:06.278Z,3
2023-05-06T00:56:08.237Z,3
2023-05-06T00:59:10.186Z,2
2023-05-06T01:02:12.249Z,2.2
2023-05-06T01:05:14.153Z,2.4
2023-05-06T01:08:16.081Z,1.5
2023-05-06T01:11:18.034Z,2.5
2023-05-06T01:14:19.995Z,2.6
2023-05-06T01:17:21.973Z,2.5
2023-05-06T01:20:23.928Z,2.3
2023-05-06T01:23:25.909Z,2
2023-05-06T01:26:27.835Z,3.5
2023-05-06T01:29:29.838Z,3.4
2023-05-06T01:32:31.807Z,3.4
2023-05-06T01:35:33.758Z,2.4
2023-05-06T01:38:35.758Z,3.1
2023-05-06T01:41:37.703Z,2.7
2023-05-06T01:44:39.676Z,4.9
2023-05-06T01:47:41.668Z,3.3
2023-05-06T01:50:43.576Z,2.7
2023-05-06T01:53:45.527Z,3.4
2023-05-06T01:56:47.521Z,3.6
2023-05-06T01:59:49.471Z,3.4
2023-05-06T02:02:51.508Z,2.9
2023-05-06T02:05:53.394Z,3.5
2023-05-06T02:08:55.355Z,2.5
2023-05-06T02:11:57.327Z,2.8
2023-05-06T02:14:59.276Z,3.5
2023-05-06T02:18:01.295Z,3.5
2023-05-06T02:21:03.255Z,4.2
2023-05-06T02:24:05.180Z,3.1
2023-05-06T02:27:07.184Z,3.6
2023-05-06T02:30:09.152Z,3.4
2023-05-06T02:33:11.142Z,2.7
2023-05-06T02:36:13.032Z,2.8
2023-05-06T02:39:15.026Z,3.1
2023-05-06T02:42:16.992Z,3.7
2023-05-06T02:45:19.014Z,3.1
2023-05-06T02:48:20.980Z,4.4
2023-05-06T02:51:23.075Z,4.1
2023-05-06T02:54:24.910Z,3
2023-05-06T02:57:26.831Z,2.8
2023-05-06T03:00:28.809Z,3.9
2023-05-06T03:03:30.758Z,2.1
2023-05-06T03:06:32.708Z,2.7
2023-05-06T03:09:34.729Z,4.1
2023-05-06T03:12:36.654Z,2.6
2023-05-06T03:15:38.634Z,5.1
2023-05-06T03:18:40.601Z,3
2023-05-06T03:21:42.649Z,3.8
2023-05-06T03:24:44.539Z,4.1
2023-05-06T03:27:46.514Z,5.2
2023-05-06T03:30:48.437Z,3
2023-05-06T03:33:50.457Z,3.8
2023-05-06T03:36:52.426Z,3.5
2023-05-06T03:39:54.324Z,3.2
2023-05-06T03:42:56.295Z,4.4
2023-05-06T03:45:58.537Z,2.5
2023-05-06T03:49:00.239Z,2.3
2023-05-06T03:52:02.226Z,3.9
2023-05-06T03:55:04.144Z,3
2023-05-06T03:58:06.188Z,3.5
2023-05-06T04:01:08.111Z,5.3
2023-05-06T04:04:10.128Z,4
2023-05-06T04:07:12.075Z,3
2023-05-06T04:10:14.040Z,3.5
2023-05-06T04:13:16.061Z,4.6
2023-05-06T04:16:17.969Z,4.1
2023-05-06T04:19:19.888Z,4.6
2023-05-06T04:22:21.872Z,4
2023-05-06T04:25:23.879Z,3.3
2023-05-06T04:28:25.873Z,3.4
2023-05-06T04:31:27.897Z,2.8
2023-05-06T04:34:29.773Z,3
2023-05-06T04:37:31.730Z,5.2
2023-05-06T04:40:33.750Z,4.3
2023-05-06T04:43:35.734Z,4.2
2023-05-06T04:46:37.644Z,3.4
2023-05-06T04:49:39.653Z,3.7
2023-05-06T04:52:41.640Z,3.5
2023-05-06T04:55:43.642Z,4.5
2023-05-06T04:58:45.569Z,5.1
2023-05-06T05:01:47.565Z,3.6
2023-05-06T05:04:49.522Z,3.7
2023-05-06T05:07:51.492Z,4.7
2023-05-06T05:10:53.453Z,3.8
2023-05-06T05:13:56.873Z,5.4
2023-05-06T05:16:57.430Z,6.9
2023-05-06T05:19:59.353Z,3
2023-05-06T05:23:01.316Z,2.8
2023-05-06T05:26:03.283Z,5
2023-05-06T05:29:05.281Z,4.7
2023-05-06T05:32:07.207Z,2.9
2023-05-06T05:35:09.398Z,3
2023-05-06T05:38:11.136Z,3.4
2023-05-06T05:41:13.682Z,6.3
2023-05-06T05:44:15.119Z,3.4
2023-05-06T05:47:19.671Z,5.9
2023-05-06T05:50:19.039Z,3.5
2023-05-06T05:53:20.976Z,3.6
2023-05-06T05:56:22.927Z,4.5
2023-05-06T05:59:24.879Z,4.3
2023-05-06T06:02:26.883Z,3.9
2023-05-06T06:05:28.825Z,3.8
2023-05-06T06:08:30.782Z,5.3
2023-05-06T06:11:32.775Z,5.4
2023-05-06T06:14:34.743Z,3.4
2023-05-06T06:17:36.783Z,4.4
2023-05-06T06:20:38.670Z,5.9
2023-05-06T06:23:40.663Z,6.7
2023-05-06T06:26:42.625Z,4
2023-05-06T06:29:44.591Z,5.4
2023-05-06T06:32:46.545Z,4.7
2023-05-06T06:35:48.521Z,5.5
2023-05-06T06:38:52.415Z,5.8
2023-05-06T06:41:52.448Z,4.7
2023-05-06T06:44:54.430Z,7.5
2023-05-06T06:47:56.379Z,5
2023-05-06T06:50:58.368Z,5.1
2023-05-06T06:54:00.320Z,5.2
2023-05-06T06:57:02.292Z,5.8
2023-05-06T07:00:04.233Z,8.8
2023-05-06T07:03:06.349Z,7.1
2023-05-06T07:06:08.163Z,5.7
2023-05-06T07:09:10.131Z,5
2023-05-06T07:12:12.141Z,5.6
2023-05-06T07:15:14.091Z,3.8
2023-05-06T07:18:16.053Z,3.6
2023-05-06T07:21:17.992Z,4.9
2023-05-06T07:24:19.911Z,2.8
2023-05-06T07:27:21.927Z,3.9
2023-05-06T07:30:23.880Z,3.5
2023-05-06T07:33:25.860Z,4.5
2023-05-06T07:36:27.817Z,4.9
2023-05-06T07:39:29.795Z,4.1
2023-05-06T07:42:31.835Z,3.5
2023-05-06T07:45:33.804Z,2.9
2023-05-06T07:48:35.731Z,2.5
2023-05-06T07:51:37.798Z,3.2
2023-05-06T07:54:39.832Z,2.7
2023-05-06T07:57:41.725Z,3.1
2023-05-06T08:00:43.700Z,3.2
2023-05-06T08:03:45.829Z,4.2
2023-05-06T08:06:47.616Z,2.9
2023-05-06T08:09:49.577Z,1.8
2023-05-06T08:12:51.556Z,2.6
2023-05-06T08:15:53.562Z,1.9
2023-05-06T08:18:55.612Z,2.1
2023-05-06T08:21:57.503Z,1.9
2023-05-06T08:24:59.588Z,1.4
2023-05-06T08:28:01.424Z,1
2023-05-06T08:31:03.387Z,2.7
2023-05-06T08:34:05.430Z,2.1
2023-05-06T08:37:07.347Z,2.6
2023-05-06T08:40:09.284Z,1.6
2023-05-06T08:43:11.246Z,2.7
2023-05-06T08:46:13.255Z,2.2
2023-05-06T08:49:15.223Z,1.7
2023-05-06T08:52:17.198Z,1.3
2023-05-06T08:55:19.133Z,1.5
2023-05-06T08:58:21.085Z,1.5
2023-05-06T09:01:23.091Z,1.6
2023-05-06T09:04:25.091Z,2.7
2023-05-06T09:07:27.098Z,2.7
2023-05-06T09:10:28.981Z,2.2
2023-05-06T09:13:30.960Z,1.6
2023-05-06T09:16:32.936Z,2.3
2023-05-06T09:19:34.939Z,1.4
2023-05-06T09:22:36.906Z,1.2
2023-05-06T09:25:38.881Z,1
2023-05-06T09:28:40.836Z,0.9
2023-05-06T09:31:42.773Z,2.2
2023-05-06T09:34:44.754Z,1.3
2023-05-06T09:37:46.689Z,1.3
2023-05-06T09:40:48.642Z,1.2
2023-05-06T09:43:50.684Z,1.3
2023-05-06T09:46:52.883Z,1.2
2023-05-06T09:49:54.693Z,2.1
2023-05-06T09:52:56.902Z,1.3
2023-05-06T09:55:58.654Z,1.7
2023-05-06T09:59:00.607Z,2.4
2023-05-06T10:02:02.591Z,1.5
2023-05-06T10:05:04.712Z,1.3
2023-05-06T10:08:06.548Z,1.3
2023-05-06T10:11:08.468Z,0.8
2023-05-06T10:14:10.441Z,2.9
2023-05-06T10:17:12.434Z,1.5
2023-05-06T10:20:14.380Z,1.7
2023-05-06T10:23:19.365Z,1.5
2023-05-06T10:26:21.321Z,1
2023-05-06T10:29:23.278Z,1.6
2023-05-06T10:32:25.282Z,0.5
2023-05-06T10:35:27.215Z,1.2
2023-05-06T10:38:29.206Z,1.5
2023-05-06T10:41:31.322Z,0.7
2023-05-06T10:44:33.232Z,1.5
2023-05-06T10:47:35.234Z,1.6
2023-05-06T10:50:37.169Z,1.2
2023-05-06T10:53:39.256Z,1.2
2023-05-06T10:56:46.323Z,1.4
2023-05-06T10:59:46.151Z,2.7
2023-05-06T11:02:48.128Z,1.6
2023-05-06T11:05:53.040Z,1.4
2023-05-06T11:08:59.691Z,1.7
2023-05-06T11:11:57.015Z,1.5
2023-05-06T11:14:58.930Z,0.9
2023-05-06T11:18:00.980Z,1.3
2023-05-06T11:21:05.676Z,1.7
2023-05-06T11:24:07.618Z,1.8
2023-05-06T11:27:09.629Z,1.1
2023-05-06T11:30:11.692Z,1
2023-05-06T11:33:13.529Z,1
2023-05-06T11:36:15.553Z,1.6
2023-05-06T11:39:17.512Z,0.9
2023-05-06T11:42:19.486Z,1.9
2023-05-06T11:45:21.449Z,2
2023-05-06T11:48:23.401Z,2.4
2023-05-06T11:51:25.576Z,0.8
2023-05-06T11:54:27.537Z,1.2
2023-05-06T11:57:29.780Z,1.4
2023-05-06T12:00:31.479Z,0.5
2023-05-06T12:03:33.677Z,1.2
2023-05-06T12:06:35.426Z,0.6
2023-05-06T12:09:37.377Z,0.8
2023-05-06T12:12:39.393Z,1
2023-05-06T12:15:41.339Z,0.6
2023-05-06T12:18:43.375Z,0.7
2023-05-06T12:21:45.290Z,0.9
2023-05-06T12:24:47.308Z,0.3
2023-05-06T12:27:49.205Z,1
2023-05-06T12:30:51.248Z,0.9
2023-05-06T12:33:54.662Z,1.5
2023-05-06T12:36:55.247Z,2.3
2023-05-06T12:39:59.008Z,1.3
2023-05-06T12:42:59.146Z,0.9
2023-05-06T12:46:01.143Z,0.8
2023-05-06T12:49:03.101Z,1.5
2023-05-06T12:52:05.061Z,1.3
2023-05-06T12:55:07.974Z,2.4
2023-05-06T12:58:08.994Z,0.9
2023-05-06T13:01:10.951Z,1
2023-05-06T13:04:12.874Z,3
2023-05-06T13:07:14.864Z,1.9
2023-05-06T13:10:16.819Z,0.8
2023-05-06T13:13:18.738Z,1.7
2023-05-06T13:16:20.725Z,1.3
2023-05-06T13:19:32.081Z,2.4
2023-05-06T13:22:24.650Z,1.7
2023-05-06T13:25:26.593Z,1.9
2023-05-06T13:28:28.549Z,1.2
2023-05-06T13:31:30.560Z,0.5
2023-05-06T13:34:32.568Z,0.8
2023-05-06T13:37:34.538Z,0.8
2023-05-06T13:40:36.464Z,1.6
2023-05-06T13:43:38.445Z,1.5
2023-05-06T13:46:40.423Z,2.1
2023-05-06T13:49:42.392Z,1.5
2023-05-06T13:52:44.301Z,1.3
2023-05-06T13:55:46.309Z,0.8
2023-05-06T13:58:48.240Z,0.7
2023-05-06T14:01:50.275Z,0.7
2023-05-06T14:04:52.200Z,1.3
2023-05-06T14:07:54.113Z,1.5
2023-05-06T14:10:56.130Z,1
2023-05-06T14:13:58.050Z,1.5
2023-05-06T14:17:00.086Z,0.8
2023-05-06T14:20:01.988Z,0.8
2023-05-06T14:23:03.934Z,1.7
2023-05-06T14:26:05.924Z,0.4
2023-05-06T14:29:07.913Z,1.5
2023-05-06T14:32:09.834Z,0.6
2023-05-06T14:35:12.060Z,0.6
2023-05-06T14:38:13.808Z,1
2023-05-06T14:41:15.749Z,0.7
2023-05-06T14:44:17.685Z,0.5
2023-05-06T14:47:19.705Z,1.9
2023-05-06T14:50:21.634Z,1.3
2023-05-06T14:53:23.659Z,0.5
2023-05-06T14:56:25.579Z,0.7
2023-05-06T14:59:27.562Z,0.6
2023-05-06T15:02:29.542Z,1.2
2023-05-06T15:05:31.504Z,1.2
2023-05-06T15:08:33.436Z,0.8
2023-05-06T15:11:35.411Z,1.8
2023-05-06T15:14:37.383Z,0.8
2023-05-06T15:17:39.413Z,1.5
2023-05-06T15:20:41.320Z,1.5
2023-05-06T15:23:43.310Z,0.9
2023-05-06T15:26:45.276Z,0.9
2023-05-06T15:29:47.252Z,0.8
2023-05-06T15:32:49.256Z,0.6
2023-05-06T15:35:51.168Z,0.7
2023-05-06T15:38:53.136Z,1.4
2023-05-06T15:41:55.088Z,1.1
2023-05-06T15:44:57.071Z,1.1
2023-05-06T15:47:59.167Z,1.6
2023-05-06T15:51:01.100Z,0.7
2023-05-06T15:54:03.076Z,0.9
2023-05-06T15:57:06.887Z,1.1
2023-05-06T16:00:07.196Z,1.3
2023-05-06T16:03:11.797Z,0.9
2023-05-06T16:06:11.080Z,1.9
2023-05-06T16:09:13.089Z,1.3
2023-05-06T16:12:15.013Z,1.1
2023-05-06T16:15:16.969Z,0.7
2023-05-06T16:18:20.877Z,1.6
2023-05-06T16:21:20.873Z,1.2
2023-05-06T16:24:24.540Z,1.8
2023-05-06T16:27:24.863Z,1.2
2023-05-06T16:30:26.812Z,1.5
2023-05-06T16:33:28.773Z,1.3
2023-05-06T16:36:30.732Z,1
2023-05-06T16:39:32.707Z,1.1
2023-05-06T16:42:34.666Z,1.3
2023-05-06T16:45:36.653Z,1.6
2023-05-06T16:48:38.621Z,2.2
2023-05-06T16:51:40.547Z,1.2
2023-05-06T16:54:42.527Z,2.1
2023-05-06T16:57:44.483Z,1.2
2023-05-06T17:00:46.464Z,6.5
2023-05-06T17:03:48.386Z,1.3
2023-05-06T17:06:50.392Z,1.8
2023-05-06T17:09:52.367Z,2.9
2023-05-06T17:12:54.332Z,1.9
2023-05-06T17:15:56.279Z,1.9
2023-05-06T17:18:58.249Z,1.4
2023-05-06T17:22:00.219Z,1.6
2023-05-06T17:25:02.183Z,2.7
2023-05-06T17:28:04.214Z,4
2023-05-06T17:31:06.181Z,3.4
2023-05-06T17:34:08.129Z,5.5
2023-05-06T17:37:10.070Z,4.4
2023-05-06T17:40:12.087Z,4.8
2023-05-06T17:43:14.072Z,3.7
2023-05-06T17:46:17.454Z,3.1
2023-05-06T17:49:17.988Z,2
2023-05-06T17:52:19.958Z,3.2
2023-05-06T17:55:22.369Z,1.8
2023-05-06T17:58:23.910Z,2.2
2023-05-06T18:01:25.884Z,2.7
2023-05-06T18:04:27.813Z,2.4
2023-05-06T18:07:29.787Z,3.1
2023-05-06T18:10:31.757Z,3.1
2023-05-06T18:13:33.736Z,2.8
2023-05-06T18:16:35.751Z,2.3
2023-05-06T18:19:37.630Z,6.1
2023-05-06T18:22:39.619Z,2.1
2023-05-06T18:25:41.576Z,2.3
2023-05-06T18:28:43.573Z,2.6
2023-05-06T18:31:45.589Z,1.7
2023-05-06T18:34:47.499Z,2.8
2023-05-06T18:37:49.465Z,3
2023-05-06T18:40:51.420Z,2.1
2023-05-06T18:43:53.376Z,3
2023-05-06T18:46:55.331Z,3.1
2023-05-06T18:49:57.279Z,2.2
2023-05-06T18:52:59.238Z,4.4
2023-05-06T18:56:01.290Z,2.6
2023-05-06T18:59:03.210Z,3.1
2023-05-06T19:02:05.883Z,7.8
2023-05-06T19:05:07.107Z,3.8
2023-05-06T19:08:09.067Z,4.7
2023-05-06T19:11:11.014Z,5.5
2023-05-06T19:14:12.954Z,3.8
2023-05-06T19:17:14.936Z,5.3
2023-05-06T19:20:16.896Z,4.5
2023-05-06T19:23:18.850Z,4.4
2023-05-06T19:26:20.807Z,3.6
2023-05-06T19:29:22.781Z,2.3
2023-05-06T19:32:24.849Z,3.5
2023-05-06T19:35:26.717Z,4
2023-05-06T19:38:28.685Z,3.1
2023-05-06T19:41:30.682Z,3
2023-05-06T19:44:32.653Z,2.4
2023-05-06T19:47:34.676Z,2.1
2023-05-06T19:50:36.591Z,2.1
2023-05-06T19:53:38.536Z,1.9
2023-05-06T19:56:40.485Z,3.9
2023-05-06T19:59:44.701Z,2.1
2023-05-06T20:02:44.524Z,2.4
2023-05-06T20:05:46.420Z,2.1
2023-05-06T20:08:48.368Z,2.1
2023-05-06T20:11:50.324Z,2.2
2023-05-06T20:14:52.330Z,2.6
2023-05-06T20:17:54.279Z,2.4
2023-05-06T20:20:56.240Z,2.9
2023-05-06T20:23:58.222Z,3.4
2023-05-06T20:27:00.320Z,1.9
2023-05-06T20:30:02.238Z,1.9
2023-05-06T20:33:04.181Z,1.6
2023-05-06T20:36:06.094Z,1.8
2023-05-06T20:39:08.061Z,2
2023-05-06T20:42:11.554Z,2.9
2023-05-06T20:45:12.165Z,2.4
2023-05-06T20:48:15.051Z,1.5
2023-05-06T20:51:15.895Z,1.3
2023-05-06T20:54:17.840Z,2.5
2023-05-06T20:57:19.793Z,1.8
2023-05-06T21:00:21.752Z,1.7
2023-05-06T21:03:23.767Z,2.6
2023-05-06T21:06:25.678Z,1.6
2023-05-06T21:09:27.664Z,2.8
2023-05-06T21:12:29.620Z,1.2
2023-05-06T21:15:31.641Z,1.6
2023-05-06T21:18:33.568Z,1.9
2023-05-06T21:21:35.542Z,1.7
2023-05-06T21:24:37.518Z,1.3
2023-05-06T21:27:39.480Z,2.7
2023-05-06T21:30:41.480Z,2.2
2023-05-06T21:33:43.414Z,2.7
2023-05-06T21:36:45.383Z,1.3
2023-05-06T21:39:47.363Z,2
2023-05-06T21:42:49.356Z,2
2023-05-06T21:45:51.385Z,2.3
2023-05-06T21:48:53.287Z,1.5
2023-05-06T21:51:55.359Z,1.3
2023-05-06T21:54:57.298Z,1.9
2023-05-06T21:57:59.272Z,2.5
2023-05-06T22:01:01.236Z,1.8
2023-05-06T22:04:03.292Z,3.3
2023-05-06T22:07:05.201Z,1.2
2023-05-06T22:10:07.165Z,1.8
2023-05-06T22:13:09.296Z,2.1
2023-05-06T22:16:11.067Z,1.4
2023-05-06T22:19:13.058Z,2.5
2023-05-06T22:22:14.996Z,2.2
2023-05-06T22:25:17.017Z,2.3
2023-05-06T22:28:19.024Z,2.3
2023-05-06T22:31:20.979Z,1.1
2023-05-06T22:34:22.945Z,2.4
2023-05-06T22:37:24.891Z,2
2023-05-06T22:40:26.837Z,1.9
2023-05-06T22:43:28.794Z,1.7
2023-05-06T22:46:30.817Z,2.4
2023-05-06T22:49:32.721Z,1.5
2023-05-06T22:52:34.694Z,1.5
2023-05-06T22:55:38.017Z,1.6
2023-05-06T22:58:38.675Z,2.1
2023-05-06T23:01:40.658Z,2.7
2023-05-06T23:04:42.586Z,1.6
2023-05-06T23:07:44.532Z,1.9
2023-05-06T23:10:46.547Z,1.8
2023-05-06T23:13:48.516Z,2.3
2023-05-06T23:16:50.532Z,2.4
2023-05-06T23:19:52.412Z,2
2023-05-06T23:22:54.388Z,3.3
2023-05-06T23:25:56.438Z,2.7
2023-05-06T23:28:58.383Z,1.5
2023-05-06T23:32:00.315Z,2.3
2023-05-06T23:35:02.296Z,2.4
2023-05-06T23:38:04.313Z,2.6
2023-05-06T23:41:06.263Z,2.4
2023-05-06T23:44:08.181Z,2.5
2023-05-06T23:47:10.177Z,1.9
2023-05-06T23:50:12.270Z,3
2023-05-06T23:53:14.093Z,1.6
2023-05-06T23:56:16.057Z,2
2023-05-06T23:59:18.031Z,2.8
